Time;durP1;ratioP1;P1;durP2;ratioP2;P2;SDS_P1;SDS_P2;PMS_P1;PMS_P2;Temp;Humidity;BMP_temperature;BMP_pressure;BME280_temperature;BME280_humidity;BME280_pressure;Samples;Min_cycle;Max_cycle;Signal;HPM_P1;HPM_P2
2021/09/11 00:01:53;;;;;;;;;;;;;;;28.35;36.91;100854.84;5119050;28;775;-41
2021/09/11 00:04:18;;;;;;;;;;;;;;;28.34;37.01;100852.34;5118951;28;755;-41
2021/09/11 00:06:43;;;;;;;;;;;;;;;28.34;37.53;100845.03;5118717;28;826;-41
2021/09/11 00:09:09;;;;;;;;;;;;;;;28.35;37.37;100846.72;5118451;28;747;-42
2021/09/11 00:11:34;;;;;;;;;;;;;;;28.39;37.46;100841.78;5118394;28;1918;-42
2021/09/11 00:13:59;;;;;;;;;;;;;;;28.38;37.63;100842.78;5118147;27;925;-41
2021/09/11 00:16:24;;;;;;;;;;;;;;;28.38;37.61;100839.28;5118014;28;814;-41
2021/09/11 00:18:50;;;;;;;;;;;;;;;28.35;37.71;100833.22;5118526;28;754;-42
2021/09/11 00:21:15;;;;;;;;;;;;;;;28.16;38.28;100837.28;5124532;27;1656;-41
2021/09/11 00:23:40;;;;;;;;;;;;;;;28.31;38.06;100837.28;5139130;27;838;-42
2021/09/11 00:26:06;;;;;;;;;;;;;;;28.23;38.15;100831.97;5138982;27;735;-42
2021/09/11 00:28:31;;;;;;;;;;;;;;;28.29;37.76;100833.09;5137479;27;945;-42
2021/09/11 00:30:56;;;;;;;;;;;;;;;28.21;37.97;100829.47;5118141;28;1902;-42
2021/09/11 00:33:22;;;;;;;;;;;;;;;28.28;37.91;100829.53;5118470;28;759;-42
2021/09/11 00:35:47;;;;;;;;;;;;;;;28.28;38.03;100828.72;5118134;28;767;-42
2021/09/11 00:38:12;;;;;;;;;;;;;;;28.27;37.69;100818.91;5117990;28;822;-40
2021/09/11 00:40:38;;;;;;;;;;;;;;;28.26;37.98;100825.34;5118281;28;747;-41
2021/09/11 00:43:03;;;;;;;;;;;;;;;28.28;38.05;100831.44;5117903;28;759;-40
2021/09/11 00:45:28;;;;;;;;;;;;;;;28.28;38.17;100826.84;5117959;27;1000;-42
2021/09/11 00:47:54;;;;;;;;;;;;;;;28.33;37.60;100819.03;5118074;28;966;-42
2021/09/11 00:50:19;;;;;;;;;;;;;;;28.27;38.04;100825.16;5117632;28;1913;-41
2021/09/11 00:52:45;;;;;;;;;;;;;;;28.28;38.18;100824.13;5117892;28;850;-42
2021/09/11 00:55:10;;;;;;;;;;;;;;;28.35;38.12;100825.09;5117729;28;826;-41
2021/09/11 00:57:36;;;;;;;;;;;;;;;28.31;37.67;100828.34;5117840;28;739;-42
2021/09/11 01:00:03;;;;;;;;;;;;;;;28.30;38.03;100832.06;5117351;27;981;-41
2021/09/11 01:02:28;;;;;;;;;;;;;;;28.29;37.67;100827.69;5117974;28;783;-41
2021/09/11 01:04:53;;;;;;;;;;;;;;;28.34;37.36;100820.69;5117016;28;774;-41
2021/09/11 01:07:19;;;;;;;;;;;;;;;28.26;38.01;100830.78;5117657;28;862;-41
2021/09/11 01:09:44;;;;;;;;;;;;;;;28.28;37.83;100824.13;5117768;28;803;-41
2021/09/11 01:12:09;;;;;;;;;;;;;;;28.30;37.99;100822.09;5117656;28;1910;-42
2021/09/11 01:14:35;;;;;;;;;;;;;;;28.30;37.86;100822.09;5117177;27;1000;-42
2021/09/11 01:17:00;;;;;;;;;;;;;;;28.34;37.86;100819.88;5117271;28;810;-41
2021/09/11 01:19:25;;;;;;;;;;;;;;;28.41;37.66;100815.34;5117525;28;897;-42
2021/09/11 01:21:50;;;;;;;;;;;;;;;28.32;37.93;100817.31;5128242;27;1593;-41
2021/09/11 01:24:16;;;;;;;;;;;;;;;28.34;37.59;100820.69;5137857;27;787;-38
2021/09/11 01:26:41;;;;;;;;;;;;;;;28.29;37.73;100812.31;5138030;27;763;-40
2021/09/11 01:29:10;;;;;;;;;;;;;;;28.38;37.55;100813.03;5130360;27;1008;-42
2021/09/11 01:31:36;;;;;;;;;;;;;;;28.29;37.53;100806.88;5116584;28;1971;-40
2021/09/11 01:34:01;;;;;;;;;;;;;;;28.37;37.47;100816.78;5117638;28;759;-41
2021/09/11 01:36:27;;;;;;;;;;;;;;;28.22;37.88;100808.66;5117027;28;728;-40
2021/09/11 01:38:53;;;;;;;;;;;;;;;28.31;37.57;100809.41;5115717;28;1261;-40
2021/09/11 01:41:18;;;;;;;;;;;;;;;28.30;37.71;100813.13;5117046;28;772;-40
2021/09/11 01:43:43;;;;;;;;;;;;;;;28.35;37.06;100816.97;5116241;27;910;-40
2021/09/11 01:46:08;;;;;;;;;;;;;;;28.38;37.23;100817.63;5116970;27;790;-42
2021/09/11 01:48:34;;;;;;;;;;;;;;;28.33;37.63;100820.88;5116700;28;1205;-41
2021/09/11 01:50:59;;;;;;;;;;;;;;;28.33;37.22;100815.47;5116541;28;1913;-39
2021/09/11 01:53:24;;;;;;;;;;;;;;;28.29;37.30;100820.41;5116902;28;795;-40
2021/09/11 01:55:50;;;;;;;;;;;;;;;28.31;37.34;100814.81;5116684;28;811;-40
2021/09/11 01:58:15;;;;;;;;;;;;;;;28.26;37.84;100815.34;5116527;28;718;-42
2021/09/11 02:00:40;;;;;;;;;;;;;;;28.38;37.30;100817.63;5136584;27;1017;-43
2021/09/11 02:03:06;;;;;;;;;;;;;;;28.40;37.35;100815.56;5137352;27;767;-41
2021/09/11 02:05:31;;;;;;;;;;;;;;;28.35;37.37;100819.69;5137220;27;795;-43
2021/09/11 02:07:57;;;;;;;;;;;;;;;28.34;37.60;100820.69;5136911;27;795;-42
2021/09/11 02:10:22;;;;;;;;;;;;;;;28.25;37.46;100819.09;5137325;27;1901;-42
2021/09/11 02:12:47;;;;;;;;;;;;;;;28.32;37.44;100814.63;5136914;28;814;-42
2021/09/11 02:15:12;;;;;;;;;;;;;;;28.32;37.31;100821.88;5136799;28;1070;-43
2021/09/11 02:17:38;;;;;;;;;;;;;;;28.29;37.42;100814.16;5137312;28;827;-42
2021/09/11 02:20:04;;;;;;;;;;;;;;;28.41;36.87;100830.78;5136886;28;763;-41
2021/09/11 02:22:29;;;;;;;;;;;;;;;28.33;37.09;100827.13;5135511;27;1522;-43
2021/09/11 02:24:54;;;;;;;;;;;;;;;28.28;37.46;100832.25;5157654;27;834;-42
2021/09/11 02:27:20;;;;;;;;;;;;;;;28.20;37.49;100832.34;5157118;27;798;-42
2021/09/11 02:29:45;;;;;;;;;;;;;;;28.12;37.77;100836.00;5157494;27;997;-43
2021/09/11 02:32:10;;;;;;;;;;;;;;;28.16;37.91;100841.88;5157669;27;1901;-41
2021/09/11 02:34:36;;;;;;;;;;;;;;;28.21;37.96;100837.56;5157137;27;792;-41
2021/09/11 02:37:01;;;;;;;;;;;;;;;28.23;37.93;100834.66;5157839;27;672;-41
2021/09/11 02:39:26;;;;;;;;;;;;;;;28.23;37.70;100845.50;5159389;27;847;-40
2021/09/11 02:41:52;;;;;;;;;;;;;;;28.29;37.79;100839.34;5161163;27;850;-40
2021/09/11 02:44:17;;;;;;;;;;;;;;;28.24;37.99;100844.47;5161509;27;993;-41
2021/09/11 02:46:42;;;;;;;;;;;;;;;28.16;38.14;100848.09;5161714;27;846;-40
2021/09/11 02:49:07;;;;;;;;;;;;;;;28.21;37.66;100840.28;5160833;27;1163;-41
2021/09/11 02:51:33;;;;;;;;;;;;;;;28.19;38.02;100844.22;5161634;27;1922;-42
2021/09/11 02:53:58;;;;;;;;;;;;;;;28.22;38.09;100843.81;5161961;27;783;-42
2021/09/11 02:56:24;;;;;;;;;;;;;;;28.26;37.87;100833.47;5161016;27;842;-41
2021/09/11 02:58:49;;;;;;;;;;;;;;;28.17;37.67;100832.72;5157483;27;953;-40
2021/09/11 03:01:14;;;;;;;;;;;;;;;28.10;38.06;100836.19;5140458;27;812;-41
2021/09/11 03:03:40;;;;;;;;;;;;;;;28.16;38.05;100834.59;5140652;27;795;-41
2021/09/11 03:06:05;;;;;;;;;;;;;;;28.17;38.13;100833.59;5140715;27;799;-42
2021/09/11 03:08:30;;;;;;;;;;;;;;;28.20;37.75;100837.75;5140554;27;787;-42
2021/09/11 03:10:55;;;;;;;;;;;;;;;28.24;37.96;100836.38;5140081;27;1964;-41
2021/09/11 03:13:21;;;;;;;;;;;;;;;28.27;37.98;100830.59;5140105;27;810;-41
2021/09/11 03:15:46;;;;;;;;;;;;;;;28.34;37.69;100828.00;5140302;27;1001;-47
2021/09/11 03:18:11;;;;;;;;;;;;;;;26.22;27.89;100819.25;5140021;27;810;-46
2021/09/11 03:20:37;;;;;;;;;;;;;;;25.90;26.46;100821.88;5141343;27;1656;-42
2021/09/11 03:23:03;;;;;;;;;;;;;;;25.23;25.78;100825.63;5160837;27;810;-44
2021/09/11 03:25:28;;;;;;;;;;;;;;;24.81;25.85;100822.88;5160506;27;842;-43
2021/09/11 03:27:53;;;;;;;;;;;;;;;24.92;26.06;100827.16;5161043;27;794;-44
2021/09/11 03:30:19;;;;;;;;;;;;;;;24.59;26.36;100827.88;5160450;27;1960;-42
2021/09/11 03:32:44;;;;;;;;;;;;;;;24.88;25.69;100826.59;5160855;27;874;-43
2021/09/11 03:35:09;;;;;;;;;;;;;;;24.89;25.58;100822.88;5160865;27;817;-40
2021/09/11 03:37:34;;;;;;;;;;;;;;;24.83;25.29;100819.03;5160720;27;806;-42
2021/09/11 03:40:00;;;;;;;;;;;;;;;24.26;25.86;100822.38;5160777;27;853;-39
2021/09/11 03:42:25;;;;;;;;;;;;;;;23.68;26.94;100826.44;5160399;27;751;-41
2021/09/11 03:44:50;;;;;;;;;;;;;;;23.53;27.00;100828.00;5160093;27;949;-43
2021/09/11 03:47:16;;;;;;;;;;;;;;;23.94;26.48;100822.06;5160785;27;830;-39
2021/09/11 03:49:41;;;;;;;;;;;;;;;23.41;27.24;100822.03;5160364;27;1272;-45
2021/09/11 03:52:06;;;;;;;;;;;;;;;23.81;27.41;100820.63;5159013;27;1917;-41
2021/09/11 03:54:32;;;;;;;;;;;;;;;24.17;27.22;100819.66;5148548;27;1347;-42
2021/09/11 03:56:57;;;;;;;;;;;;;;;24.68;27.40;100826.06;5168878;27;1413;-40
2021/09/11 03:59:22;;;;;;;;;;;;;;;25.24;27.52;100827.34;5162687;27;1231;-45
2021/09/11 04:01:48;;;;;;;;;;;;;;;25.39;29.25;100836.41;5167990;27;1500;-48
2021/09/11 04:04:13;;;;;;;;;;;;;;;25.73;28.63;100833.69;5170970;27;1535;-41
2021/09/11 04:06:38;;;;;;;;;;;;;;;26.07;28.15;100829.91;5169363;27;817;-38
2021/09/11 04:09:03;;;;;;;;;;;;;;;26.31;28.28;100844.28;5171410;27;1446;-42
2021/09/11 04:11:29;;;;;;;;;;;;;;;26.36;27.47;100833.84;5173893;27;1905;-42
2021/09/11 04:13:55;;;;;;;;;;;;;;;26.51;27.68;100831.25;5162623;27;1339;-39
2021/09/11 04:16:20;;;;;;;;;;;;;;;26.59;27.06;100840.31;5165123;27;1386;-43
2021/09/11 04:18:45;;;;;;;;;;;;;;;26.71;27.08;100833.50;5174658;27;1398;-39
2021/09/11 04:21:10;;;;;;;;;;;;;;;26.54;27.16;100835.47;5161852;27;1528;-39
2021/09/11 04:23:36;;;;;;;;;;;;;;;26.69;27.15;100829.31;5169013;27;1488;-39
2021/09/11 04:26:01;;;;;;;;;;;;;;;26.58;28.13;100835.94;5162165;27;814;-40
2021/09/11 04:28:26;;;;;;;;;;;;;;;26.55;28.58;100841.69;5159053;27;1421;-41
2021/09/11 04:30:52;;;;;;;;;;;;;;;26.76;29.09;100841.91;5158481;27;1963;-41
2021/09/11 04:33:17;;;;;;;;;;;;;;;26.80;28.65;100841.53;5165731;27;806;-41
2021/09/11 04:35:45;;;;;;;;;;;;;;;26.89;29.66;100841.31;5170931;27;806;-42
2021/09/11 04:38:11;;;;;;;;;;;;;;;26.91;29.86;100841.13;5180604;27;830;-40
2021/09/11 04:40:36;;;;;;;;;;;;;;;27.06;30.00;100838.50;5176487;27;823;-41
2021/09/11 04:43:03;;;;;;;;;;;;;;;26.99;30.67;100840.25;5158725;27;921;-41
2021/09/11 04:45:28;;;;;;;;;;;;;;;27.16;28.95;100849.06;5158898;27;910;-41
2021/09/11 04:47:54;;;;;;;;;;;;;;;27.08;29.29;100841.03;5158798;27;1033;-40
2021/09/11 04:50:19;;;;;;;;;;;;;;;27.11;30.16;100851.50;5159272;27;1971;-40
2021/09/11 04:52:44;;;;;;;;;;;;;;;27.18;31.89;100851.59;5139743;27;1342;-40
2021/09/11 04:55:10;;;;;;;;;;;;;;;27.27;32.62;100853.22;5157963;27;771;-41
2021/09/11 04:57:35;;;;;;;;;;;;;;;27.41;33.06;100856.97;5159027;27;802;-40
2021/09/11 05:00:01;;;;;;;;;;;;;;;27.20;33.36;100863.91;5144424;27;953;-39
2021/09/11 05:02:27;;;;;;;;;;;;;;;27.30;32.96;100860.94;5137748;27;775;-40
2021/09/11 05:04:53;;;;;;;;;;;;;;;27.49;32.97;100859.59;5138105;27;779;-40
2021/09/11 05:07:18;;;;;;;;;;;;;;;27.50;32.85;100861.28;5155933;27;1410;-43
2021/09/11 05:09:44;;;;;;;;;;;;;;;27.57;32.72;100863.25;5160016;27;1211;-44
2021/09/11 05:12:09;;;;;;;;;;;;;;;27.67;33.08;100866.53;5159306;27;1975;-42
2021/09/11 05:14:34;;;;;;;;;;;;;;;27.68;32.97;100861.94;5168226;27;1477;-41
2021/09/11 05:16:59;;;;;;;;;;;;;;;27.77;33.53;100863.59;5164585;27;1327;-42
2021/09/11 05:19:25;;;;;;;;;;;;;;;27.92;33.30;100863.63;5179531;27;763;-43
2021/09/11 05:21:50;;;;;;;;;;;;;;;27.94;33.32;100866.97;5164882;27;1351;-42
2021/09/11 05:24:16;;;;;;;;;;;;;;;27.84;33.63;100864.53;5158297;27;751;-41
2021/09/11 05:26:42;;;;;;;;;;;;;;;27.98;33.86;100860.16;5158890;27;1358;-37
2021/09/11 05:29:07;;;;;;;;;;;;;;;27.99;33.56;100859.13;5161712;27;1307;-39
2021/09/11 05:31:32;;;;;;;;;;;;;;;27.98;33.29;100860.16;5142096;27;1977;-38
2021/09/11 05:33:58;;;;;;;;;;;;;;;27.95;33.87;100856.97;5163765;27;1170;-39
2021/09/11 05:36:23;;;;;;;;;;;;;;;28.07;33.92;100857.34;5161280;27;1184;-40
2021/09/11 05:38:49;;;;;;;;;;;;;;;28.02;34.60;100867.91;5171611;27;1397;-44
2021/09/11 05:41:15;;;;;;;;;;;;;;;27.96;34.94;100867.59;5169114;27;1390;-42
2021/09/11 05:43:41;;;;;;;;;;;;;;;28.14;34.63;100866.41;5161141;27;1203;-44
2021/09/11 05:46:07;;;;;;;;;;;;;;;28.09;34.86;100869.66;5170212;27;817;-41
2021/09/11 05:48:34;;;;;;;;;;;;;;;28.08;35.24;100867.97;5157545;27;1251;-38
2021/09/11 05:51:01;;;;;;;;;;;;;;;28.15;34.98;100869.94;5157786;27;1913;-38
2021/09/11 05:53:26;;;;;;;;;;;;;;;28.21;35.20;100874.63;5160601;27;1509;-38
2021/09/11 05:55:52;;;;;;;;;;;;;;;28.26;34.97;100882.16;5157761;27;855;-39
2021/09/11 05:58:17;;;;;;;;;;;;;;;28.11;34.83;100875.72;5157765;27;834;-42
2021/09/11 06:00:42;;;;;;;;;;;;;;;28.34;34.74;100877.50;5139811;27;1212;-40
2021/09/11 06:03:08;;;;;;;;;;;;;;;28.44;34.44;100879.94;5170697;27;1472;-38
2021/09/11 06:05:33;;;;;;;;;;;;;;;28.50;34.84;100872.91;5162707;27;1354;-44
2021/09/11 06:07:58;;;;;;;;;;;;;;;28.49;35.21;100871.25;5172336;27;1480;-43
2021/09/11 06:10:24;;;;;;;;;;;;;;;28.53;35.00;100866.31;5169947;27;1978;-41
2021/09/11 06:12:49;;;;;;;;;;;;;;;28.60;35.03;100872.63;5167393;27;1496;-39
2021/09/11 06:15:14;;;;;;;;;;;;;;;28.63;34.19;100863.28;5166430;27;1449;-41
2021/09/11 06:17:40;;;;;;;;;;;;;;;28.62;35.00;100867.00;5173532;27;1610;-39
2021/09/11 06:20:05;;;;;;;;;;;;;;;28.59;34.55;100860.94;5166838;27;1298;-40
2021/09/11 06:22:31;;;;;;;;;;;;;;;28.68;34.48;100861.69;5142916;27;1621;-40
2021/09/11 06:24:56;;;;;;;;;;;;;;;28.75;34.46;100858.19;5162867;27;1386;-40
2021/09/11 06:27:21;;;;;;;;;;;;;;;28.72;34.54;100854.88;5169749;27;1397;-39
2021/09/11 06:29:47;;;;;;;;;;;;;;;28.77;34.40;100866.97;5162752;27;1259;-39
2021/09/11 06:32:12;;;;;;;;;;;;;;;28.78;34.23;100850.53;5157321;27;1913;-39
2021/09/11 06:34:37;;;;;;;;;;;;;;;28.86;34.14;100860.44;5169526;27;759;-39
2021/09/11 06:37:03;;;;;;;;;;;;;;;28.84;34.21;100849.75;5172380;27;1499;-39
2021/09/11 06:39:28;;;;;;;;;;;;;;;28.91;34.52;100852.53;5157263;27;810;-39
2021/09/11 06:41:53;;;;;;;;;;;;;;;28.80;34.51;100856.59;5157651;27;846;-39
2021/09/11 06:44:19;;;;;;;;;;;;;;;28.83;34.33;100858.91;5157125;27;1231;-39
2021/09/11 06:46:44;;;;;;;;;;;;;;;28.84;33.72;100847.06;5157365;27;798;-40
2021/09/11 06:49:09;;;;;;;;;;;;;;;28.88;33.98;100862.94;5166358;27;1254;-40
2021/09/11 06:51:34;;;;;;;;;;;;;;;28.83;30.62;100852.66;5162192;27;1913;-40
2021/09/11 06:54:00;;;;;;;;;;;;;;;28.92;31.71;100851.53;5163117;27;1426;-40
2021/09/11 06:56:25;;;;;;;;;;;;;;;28.92;33.22;100856.09;5165515;27;1362;-40
2021/09/11 06:58:50;;;;;;;;;;;;;;;28.84;32.86;100857.06;5166424;27;1326;-38
2021/09/11 07:01:16;;;;;;;;;;;;;;;28.98;33.89;100846.41;5171183;27;1180;-40
2021/09/11 07:03:45;;;;;;;;;;;;;;;29.08;33.57;100850.44;5165791;27;1204;-40
2021/09/11 07:06:10;;;;;;;;;;;;;;;29.08;33.38;100845.03;5171207;27;1389;-39
2021/09/11 07:08:36;;;;;;;;;;;;;;;29.10;33.55;100852.97;5170431;27;1346;-40
2021/09/11 07:11:01;;;;;;;;;;;;;;;29.10;33.18;100844.84;5169135;27;1980;-43
2021/09/11 07:13:26;;;;;;;;;;;;;;;29.18;32.97;100838.44;5169451;27;1460;-39
2021/09/11 07:15:52;;;;;;;;;;;;;;;29.18;33.46;100838.44;5163564;27;1311;-42
2021/09/11 07:18:17;;;;;;;;;;;;;;;29.22;33.31;100842.44;5162547;27;1515;-40
2021/09/11 07:20:42;;;;;;;;;;;;;;;29.18;34.12;100847.41;5158311;27;1413;-41
2021/09/11 07:23:08;;;;;;;;;;;;;;;29.22;33.80;100837.03;5157193;27;759;-42
2021/09/11 07:25:33;;;;;;;;;;;;;;;29.28;33.96;100844.38;5157302;27;822;-42
2021/09/11 07:27:59;;;;;;;;;;;;;;;29.29;34.15;100851.47;5141293;27;826;-41
2021/09/11 07:30:24;;;;;;;;;;;;;;;29.34;34.16;100853.59;5160012;27;1972;-41
2021/09/11 07:32:49;;;;;;;;;;;;;;;29.29;34.32;100846.06;5141781;27;1153;-40
2021/09/11 07:35:15;;;;;;;;;;;;;;;29.36;34.27;100847.97;5162861;27;1485;-39
2021/09/11 07:37:40;;;;;;;;;;;;;;;29.41;34.26;100843.63;5176521;27;1337;-39
2021/09/11 07:40:05;;;;;;;;;;;;;;;29.49;34.18;100841.81;5179368;27;1401;-42
2021/09/11 07:42:31;;;;;;;;;;;;;;;29.43;34.28;100844.28;5169276;27;1394;-40
2021/09/11 07:44:56;;;;;;;;;;;;;;;29.45;33.97;100844.94;5169375;27;1195;-41
2021/09/11 07:47:21;;;;;;;;;;;;;;;29.43;34.13;100846.13;5175097;27;1472;-40
2021/09/11 07:49:48;;;;;;;;;;;;;;;29.41;33.94;100845.53;5171527;27;1330;-42
2021/09/11 07:52:14;;;;;;;;;;;;;;;29.42;33.99;100842.63;5169907;27;1906;-41
2021/09/11 07:54:39;;;;;;;;;;;;;;;29.37;34.35;100836.09;5163141;27;1405;-39
2021/09/11 07:57:05;;;;;;;;;;;;;;;29.37;34.15;100830.69;5169222;27;1242;-41
2021/09/11 07:59:30;;;;;;;;;;;;;;;29.26;34.19;100830.16;5170976;27;1415;-40
2021/09/11 08:01:56;;;;;;;;;;;;;;;29.36;34.24;100832.56;5169014;27;1347;-40
2021/09/11 08:04:21;;;;;;;;;;;;;;;29.36;34.14;100831.72;5170187;27;1238;-38
2021/09/11 08:06:46;;;;;;;;;;;;;;;29.40;34.32;100820.28;5160814;27;1302;-39
2021/09/11 08:09:11;;;;;;;;;;;;;;;29.43;34.07;100817.19;5160879;27;1282;-41
2021/09/11 08:11:37;;;;;;;;;;;;;;;29.46;33.96;100818.66;5166519;27;1898;-41
2021/09/11 08:14:02;;;;;;;;;;;;;;;29.46;34.20;100816.78;5165428;27;1539;-39
2021/09/11 08:16:28;;;;;;;;;;;;;;;29.46;33.92;100814.06;5170159;27;1389;-40
2021/09/11 08:18:53;;;;;;;;;;;;;;;29.34;34.17;100807.53;5169067;27;1250;-41
2021/09/11 08:21:18;;;;;;;;;;;;;;;29.57;33.91;100810.00;5167608;27;1347;-40
2021/09/11 08:23:45;;;;;;;;;;;;;;;29.54;33.78;100804.13;5167567;27;1322;-41
2021/09/11 08:26:10;;;;;;;;;;;;;;;29.49;33.26;100802.00;5166439;27;1460;-40
2021/09/11 08:28:35;;;;;;;;;;;;;;;29.42;33.40;100803.81;5168196;27;1337;-41
2021/09/11 08:31:01;;;;;;;;;;;;;;;29.37;33.78;100795.44;5165935;27;1898;-41
2021/09/11 08:33:26;;;;;;;;;;;;;;;29.41;33.69;100797.56;5165453;27;1354;-40
2021/09/11 08:35:52;;;;;;;;;;;;;;;29.36;32.55;100788.38;5174952;27;1503;-41
2021/09/11 08:38:17;;;;;;;;;;;;;;;25.41;35.97;100788.59;5175650;27;755;-38
2021/09/11 08:40:42;;;;;;;;;;;;;;;20.26;44.16;100775.44;5180476;27;849;-36
2021/09/11 08:43:07;;;;;;;;;;;;;;;18.98;45.72;100768.38;5172008;27;1350;-37
2021/09/11 08:45:33;;;;;;;;;;;;;;;19.33;47.90;100766.41;5160291;27;984;-39
2021/09/11 08:47:59;;;;;;;;;;;;;;;19.49;48.66;100762.41;5165955;27;1548;-40
2021/09/11 08:50:24;;;;;;;;;;;;;;;19.65;49.39;100761.97;5168126;27;1976;-40
2021/09/11 08:52:50;;;;;;;;;;;;;;;19.83;50.94;100762.19;5173636;27;1313;-38
2021/09/11 08:55:15;;;;;;;;;;;;;;;20.16;51.65;100760.25;5171121;27;1397;-41
2021/09/11 08:57:55;;;;;;;;;;;;;;;20.05;51.48;100758.50;5179809;27;767;-38
2021/09/11 09:00:20;;;;;;;;;;;;;;;20.16;50.10;100757.56;5159406;27;1171;-41
2021/09/11 09:02:45;;;;;;;;;;;;;;;20.26;49.30;100748.72;5174606;27;1350;-41
2021/09/11 09:05:12;;;;;;;;;;;;;;;20.24;49.34;100748.88;5169871;27;1235;-42
2021/09/11 09:07:40;;;;;;;;;;;;;;;20.22;49.29;100750.81;5168212;27;1251;-41
2021/09/11 09:10:12;;;;;;;;;;;;;;;20.14;49.44;100746.16;5166337;27;1326;-38
2021/09/11 09:12:38;;;;;;;;;;;;;;;20.11;49.68;100749.13;5157807;27;800;-39
2021/09/11 09:15:05;;;;;;;;;;;;;;;20.06;49.81;100749.53;5158640;27;1457;-45
2021/09/11 09:17:53;;;;;;;;;;;;;;;20.00;49.74;100749.19;5164695;27;1401;-39
2021/09/11 09:20:19;;;;;;;;;;;;;;;19.88;49.94;100743.94;5165538;27;1342;-37
2021/09/11 09:22:46;;;;;;;;;;;;;;;19.94;49.85;100747.88;5165315;27;1644;-45
2021/09/11 09:25:20;;;;;;;;;;;;;;;19.88;50.01;100743.94;5162904;27;1531;-38
2021/09/11 09:27:56;;;;;;;;;;;;;;;19.95;49.65;100742.41;5168591;27;819;-38
2021/09/11 09:30:22;;;;;;;;;;;;;;;19.91;50.06;100748.16;5162176;27;1913;-38
2021/09/11 09:32:48;;;;;;;;;;;;;;;19.70;50.36;100746.41;5158309;27;807;-44
2021/09/11 09:35:22;;;;;;;;;;;;;;;19.76;50.55;100743.19;5158522;27;762;-45
2021/09/11 09:37:54;;;;;;;;;;;;;;;19.86;50.09;100734.38;5157826;27;862;-45
2021/09/11 09:40:32;;;;;;;;;;;;;;;19.84;50.12;100729.16;5158337;27;755;-38
2021/09/11 09:42:58;;;;;;;;;;;;;;;19.85;50.16;100727.34;5158396;27;790;-38
2021/09/11 09:45:30;;;;;;;;;;;;;;;19.93;50.11;100723.03;5158180;27;950;-38
2021/09/11 09:48:14;;;;;;;;;;;;;;;19.81;50.06;100721.44;5158010;27;1006;-43
2021/09/11 09:50:40;;;;;;;;;;;;;;;19.94;49.97;100716.69;5157036;27;1918;-41
2021/09/11 09:53:06;;;;;;;;;;;;;;;19.85;50.24;100717.53;5158591;27;750;-45
2021/09/11 09:55:31;;;;;;;;;;;;;;;19.80;50.72;100722.41;5157922;27;862;-38
2021/09/11 09:57:57;;;;;;;;;;;;;;;19.79;51.19;100718.03;5158007;27;751;-43
2021/09/11 10:00:23;;;;;;;;;;;;;;;19.95;50.82;100715.72;5157152;27;925;-41
2021/09/11 10:02:48;;;;;;;;;;;;;;;19.98;51.03;100719.09;5157475;27;784;-44
2021/09/11 10:05:14;;;;;;;;;;;;;;;19.88;51.43;100714.59;5157897;27;806;-38
2021/09/11 10:07:57;;;;;;;;;;;;;;;19.79;52.14;100720.72;5157757;27;774;-38
2021/09/11 10:10:29;;;;;;;;;;;;;;;19.85;51.49;100716.66;5171014;27;1909;-39
2021/09/11 10:13:03;;;;;;;;;;;;;;;19.78;52.04;100714.56;5141230;27;952;-39
2021/09/11 10:15:29;;;;;;;;;;;;;;;19.89;51.84;100713.59;5159611;27;940;-39
2021/09/11 10:17:55;;;;;;;;;;;;;;;19.92;51.88;100716.00;5157652;27;752;-45
2021/09/11 10:20:20;;;;;;;;;;;;;;;19.97;51.42;100704.06;5157380;27;803;-41
2021/09/11 10:23:04;;;;;;;;;;;;;;;19.80;51.65;100706.41;5157817;27;1557;-37
2021/09/11 10:25:39;;;;;;;;;;;;;;;19.82;51.44;100699.94;5157850;27;783;-38
2021/09/11 10:28:11;;;;;;;;;;;;;;;19.93;51.45;100700.81;5156632;27;816;-38
2021/09/11 10:30:57;;;;;;;;;;;;;;;19.91;51.35;100700.97;5157129;27;1962;-38
2021/09/11 10:33:41;;;;;;;;;;;;;;;19.96;51.19;100700.53;5157641;27;1489;-39
2021/09/11 10:36:10;;;;;;;;;;;;;;;19.90;51.05;100696.59;5157488;27;807;-40
2021/09/11 10:38:41;;;;;;;;;;;;;;;19.82;51.46;100694.59;5157436;27;819;-40
2021/09/11 10:41:10;;;;;;;;;;;;;;;20.05;50.98;100688.25;5157260;27;808;-46
2021/09/11 10:43:35;;;;;;;;;;;;;;;19.87;51.74;100693.38;5156974;27;997;-40
2021/09/11 10:46:06;;;;;;;;;;;;;;;19.77;51.83;100696.00;5162926;27;1469;-39
2021/09/11 10:48:32;;;;;;;;;;;;;;;19.80;51.87;100687.72;5171690;27;1452;-39
2021/09/11 10:51:03;;;;;;;;;;;;;;;19.88;51.99;100687.88;5162501;27;1910;-40
2021/09/11 10:53:28;;;;;;;;;;;;;;;19.86;51.98;100684.50;5157122;27;835;-39
2021/09/11 10:55:53;;;;;;;;;;;;;;;19.89;52.02;100680.69;5157680;27;854;-40
2021/09/11 10:58:22;;;;;;;;;;;;;;;19.91;52.18;100670.75;5139748;27;1209;-40
2021/09/11 11:01:00;;;;;;;;;;;;;;;19.90;52.25;100664.53;5159904;27;954;-39
2021/09/11 11:03:25;;;;;;;;;;;;;;;19.92;52.08;100677.75;5165080;27;1155;-38
2021/09/11 11:06:00;;;;;;;;;;;;;;;19.89;52.10;100678.03;5165237;27;1216;-38
2021/09/11 11:08:26;;;;;;;;;;;;;;;19.89;52.29;100675.38;5160830;27;1019;-40
2021/09/11 11:10:51;;;;;;;;;;;;;;;19.91;52.35;100668.06;5160294;27;1982;-37
2021/09/11 11:13:16;;;;;;;;;;;;;;;19.86;52.29;100671.16;5142368;27;1228;-39
2021/09/11 11:15:42;;;;;;;;;;;;;;;19.93;52.01;100653.63;5159349;27;1055;-40
2021/09/11 11:18:07;;;;;;;;;;;;;;;19.66;52.29;100668.41;5160455;27;1189;-40
2021/09/11 11:20:32;;;;;;;;;;;;;;;19.64;51.87;100658.84;5159623;27;1315;-40
2021/09/11 11:22:58;;;;;;;;;;;;;;;19.54;51.82;100666.81;5161277;27;727;-40
2021/09/11 11:25:31;;;;;;;;;;;;;;;19.55;51.44;100661.34;5162250;27;1429;-40
2021/09/11 11:27:56;;;;;;;;;;;;;;;19.23;51.94;100657.00;5172783;27;1706;-40
2021/09/11 11:30:22;;;;;;;;;;;;;;;22.42;45.67;100659.22;5166454;27;1905;-40
2021/09/11 11:32:47;;;;;;;;;;;;;;;23.88;42.54;100662.34;5170880;27;1480;-40
2021/09/11 11:35:14;;;;;;;;;;;;;;;24.57;40.07;100658.59;5173159;27;1519;-40
2021/09/11 11:37:39;;;;;;;;;;;;;;;25.08;40.84;100654.06;5170862;27;835;-41
2021/09/11 11:40:06;;;;;;;;;;;;;;;25.34;38.83;100657.53;5179577;27;752;-41
2021/09/11 11:42:33;;;;;;;;;;;;;;;25.64;38.82;100658.59;5160247;27;1535;-41
2021/09/11 11:44:58;;;;;;;;;;;;;;;25.83;39.59;100659.19;5159677;27;941;-41
2021/09/11 11:47:23;;;;;;;;;;;;;;;22.19;45.58;100659.69;5160596;27;803;-41
2021/09/11 11:49:49;;;;;;;;;;;;;;;20.29;49.56;100653.13;5159814;27;1041;-40
2021/09/11 11:52:14;;;;;;;;;;;;;;;19.97;50.54;100651.50;5160271;27;2031;-40
2021/09/11 11:54:42;;;;;;;;;;;;;;;19.92;50.47;100643.06;5142159;27;1421;-40
2021/09/11 11:57:13;;;;;;;;;;;;;;;19.86;50.14;100639.13;5153621;27;1279;-40
2021/09/11 11:59:39;;;;;;;;;;;;;;;19.45;51.26;100639.13;5159774;27;851;-40
2021/09/11 12:02:17;;;;;;;;;;;;;;;20.01;53.33;100638.72;5160447;27;801;-40
2021/09/11 12:04:43;;;;;;;;;;;;;;;23.46;42.55;100634.47;5159877;27;858;-40
2021/09/11 12:07:08;;;;;;;;;;;;;;;24.70;39.63;100633.06;5159208;27;826;-41
2021/09/11 12:09:33;;;;;;;;;;;;;;;25.25;37.86;100640.56;5154954;27;947;-41
2021/09/11 12:12:12;;;;;;;;;;;;;;;25.53;37.23;100640.97;5158908;27;1909;-41
2021/09/11 12:14:37;;;;;;;;;;;;;;;25.97;36.74;100635.22;5142266;27;989;-42
2021/09/11 12:17:02;;;;;;;;;;;;;;;26.17;36.60;100633.72;5158640;27;1031;-41
2021/09/11 12:19:28;;;;;;;;;;;;;;;26.31;36.78;100639.34;5159709;27;811;-41
2021/09/11 12:21:53;;;;;;;;;;;;;;;26.44;37.46;100635.25;5128884;27;1558;-42
2021/09/11 12:24:18;;;;;;;;;;;;;;;26.48;37.94;100640.09;5150714;27;808;-42
2021/09/11 12:26:44;;;;;;;;;;;;;;;26.61;38.23;100634.06;5158958;27;826;-40
2021/09/11 12:29:09;;;;;;;;;;;;;;;26.80;37.51;100626.50;5152774;27;999;-40
2021/09/11 12:31:39;;;;;;;;;;;;;;;26.97;37.03;100620.91;5148174;27;1910;-40
2021/09/11 12:34:08;;;;;;;;;;;;;;;27.16;37.38;100618.72;5159191;27;917;-40
2021/09/11 12:36:33;;;;;;;;;;;;;;;27.27;36.99;100615.56;5158892;27;827;-40
2021/09/11 12:39:19;;;;;;;;;;;;;;;27.38;37.12;100608.81;5159867;27;1461;-38
2021/09/11 12:41:45;;;;;;;;;;;;;;;27.45;36.98;100604.34;5165413;27;1745;-37
2021/09/11 12:44:12;;;;;;;;;;;;;;;27.57;36.88;100607.41;5168890;27;1392;-39
2021/09/11 12:46:38;;;;;;;;;;;;;;;27.56;37.32;100608.41;5159107;27;761;-37